Terminal Aerodrome Forecast
Issued by NWS

Home | Current Version | Previous Version | Text Only | Print | Product List | Glossary On
Versions: 1 2 3 4 5 6 7 8 9 10 11 12 13 14 15 16 17 18 19 20 21 22 23 24 25 26 27 28
000
FTUS45 KRIW 280522
TAFPNA
TAF
KPNA 280522Z 2806/2906 31007KT P6SM VCSH SCT025 BKN040
     FM281000 30013G21KT P6SM VCSH SCT020 BKN035
     FM281600 31016G26KT P6SM SCT040 BKN070
     FM282200 31013KT P6SM SCT050
     FM290200 30007KT P6SM FEW060
      AMD LTD TO CLD VIS AND WIND=

USA.gov is the U.S. government's official web portal to all federal, state and local government web resources and services.